createdAt,value
2023-04-28T00:00:27.726Z,5.20
2023-04-28T00:00:58.234Z,5.40
2023-04-28T00:01:28.890Z,4.60
2023-04-28T00:01:59.288Z,5.80
2023-04-28T00:02:30.225Z,5.30
2023-04-28T00:03:00.890Z,6.50
2023-04-28T00:03:31.583Z,4.70
2023-04-28T00:04:02.526Z,3.90
2023-04-28T00:04:33.289Z,7.00
2023-04-28T00:05:04.182Z,5.70
2023-04-28T00:05:34.618Z,6.20
2023-04-28T00:06:05.112Z,5.70
2023-04-28T00:06:36.082Z,5.60
2023-04-28T00:07:07.083Z,5.40
2023-04-28T00:07:38.051Z,6.50
2023-04-28T00:08:08.979Z,6.60
2023-04-28T00:08:39.855Z,6.50
2023-04-28T00:09:10.728Z,6.30
2023-04-28T00:09:41.586Z,4.50
2023-04-28T00:10:12.486Z,6.70
2023-04-28T00:10:43.382Z,5.10
2023-04-28T00:11:14.316Z,6.80
2023-04-28T00:11:45.249Z,6.40
2023-04-28T00:12:16.209Z,4.20
2023-04-28T00:12:47.153Z,6.00
2023-04-28T00:13:18.107Z,4.40
2023-04-28T00:13:49.028Z,5.40
2023-04-28T00:14:19.926Z,5.60
2023-04-28T00:14:50.844Z,5.50
2023-04-28T00:15:21.745Z,6.10
2023-04-28T00:15:52.661Z,5.60
2023-04-28T00:16:23.618Z,6.30
2023-04-28T00:16:54.661Z,5.10
2023-04-28T00:17:25.246Z,4.80
2023-04-28T00:17:55.929Z,5.00
2023-04-28T00:18:26.486Z,4.50
2023-04-28T00:18:56.941Z,5.20
2023-04-28T00:19:28.013Z,5.70
2023-04-28T00:19:58.433Z,6.40
2023-04-28T00:20:29.299Z,5.00
2023-04-28T00:21:00.188Z,6.70
2023-04-28T00:21:31.048Z,5.00
2023-04-28T00:22:01.923Z,7.30
2023-04-28T00:22:32.837Z,6.40
2023-04-28T00:23:04.048Z,6.30
2023-04-28T00:23:34.565Z,5.80
2023-04-28T00:24:05.483Z,5.10
2023-04-28T00:24:36.428Z,5.20
2023-04-28T00:25:07.428Z,5.60
2023-04-28T00:25:37.857Z,4.90
2023-04-28T00:26:08.815Z,6.50
2023-04-28T00:26:39.705Z,6.10
2023-04-28T00:27:10.580Z,4.80
2023-04-28T00:27:41.472Z,5.50
2023-04-28T00:28:16.117Z,5.60
2023-04-28T00:28:44.212Z,5.80
2023-04-28T00:29:14.295Z,7.90
2023-04-28T00:29:44.815Z,8.10
2023-04-28T00:30:15.284Z,7.00
2023-04-28T00:30:45.873Z,6.00
2023-04-28T00:31:16.908Z,5.20
2023-04-28T00:31:47.486Z,5.30
2023-04-28T00:32:18.454Z,6.50
2023-04-28T00:32:49.388Z,5.30
2023-04-28T00:33:20.283Z,4.80
2023-04-28T00:33:51.167Z,7.30
2023-04-28T00:34:22.157Z,5.10
2023-04-28T00:34:53.025Z,5.00
2023-04-28T00:35:23.890Z,5.70
2023-04-28T00:35:54.822Z,6.30
2023-04-28T00:36:25.821Z,5.90
2023-04-28T00:36:56.745Z,5.00
2023-04-28T00:37:27.751Z,5.20
2023-04-28T00:37:58.709Z,6.60
2023-04-28T00:38:29.608Z,6.20
2023-04-28T00:39:00.475Z,5.60
2023-04-28T00:39:31.361Z,6.60
2023-04-28T00:40:02.323Z,8.00
2023-04-28T00:40:33.186Z,5.40
2023-04-28T00:41:04.080Z,5.50
2023-04-28T00:41:35.066Z,6.00
2023-04-28T00:42:05.990Z,4.90
2023-04-28T00:42:36.920Z,5.60
2023-04-28T00:43:07.876Z,5.20
2023-04-28T00:43:38.825Z,5.30
2023-04-28T00:44:09.757Z,5.20
2023-04-28T00:44:40.622Z,5.60
2023-04-28T00:45:11.497Z,7.50
2023-04-28T00:45:42.386Z,7.20
2023-04-28T00:46:13.330Z,5.10
2023-04-28T00:46:43.817Z,5.50
2023-04-28T00:47:14.697Z,5.50
2023-04-28T00:47:45.735Z,5.00
2023-04-28T00:48:16.392Z,8.50
2023-04-28T00:48:46.911Z,6.60
2023-04-28T00:49:17.556Z,6.70
2023-04-28T00:49:48.049Z,6.20
2023-04-28T00:50:18.734Z,7.40
2023-04-28T00:50:49.216Z,8.00
2023-04-28T00:51:20.280Z,4.30
2023-04-28T00:51:50.651Z,6.50
2023-04-28T00:52:21.515Z,6.80
2023-04-28T00:52:52.424Z,6.40
2023-04-28T00:53:23.357Z,7.00
2023-04-28T00:53:54.234Z,5.00
2023-04-28T00:54:25.573Z,6.00
2023-04-28T00:54:56.087Z,6.50
2023-04-28T00:55:26.803Z,8.90
2023-04-28T00:55:57.267Z,6.40
2023-04-28T00:56:28.409Z,7.10
2023-04-28T00:56:58.907Z,7.50
2023-04-28T00:57:30.079Z,5.90
2023-04-28T00:58:00.487Z,6.60
2023-04-28T00:58:31.369Z,7.20
2023-04-28T00:59:02.253Z,7.50
2023-04-28T00:59:33.141Z,5.30
2023-04-28T01:00:04.008Z,6.90
2023-04-28T01:00:34.860Z,7.00
2023-04-28T01:01:05.841Z,6.20
2023-04-28T01:01:36.608Z,6.30
2023-04-28T01:02:07.217Z,7.30
2023-04-28T01:02:38.026Z,9.10
2023-04-28T01:03:08.418Z,6.20
2023-04-28T01:03:39.751Z,7.20
2023-04-28T01:04:10.206Z,7.40
2023-04-28T01:04:40.645Z,7.30
2023-04-28T01:05:11.072Z,6.50
2023-04-28T01:05:42.066Z,6.80
2023-04-28T01:06:12.428Z,7.20
2023-04-28T01:06:43.306Z,7.30
2023-04-28T01:07:14.170Z,6.50
2023-04-28T01:07:45.029Z,8.10
2023-04-28T01:08:16.148Z,7.60
2023-04-28T01:08:46.829Z,7.60
2023-04-28T01:09:17.343Z,6.60
2023-04-28T01:09:48.467Z,5.90
2023-04-28T01:10:18.960Z,8.30
2023-04-28T01:10:50.091Z,7.50
2023-04-28T01:11:20.635Z,5.80
2023-04-28T01:11:51.261Z,8.00
2023-04-28T01:12:21.661Z,7.90
2023-04-28T01:12:52.550Z,6.60
2023-04-28T01:13:23.425Z,6.70
2023-04-28T01:13:54.325Z,7.20
2023-04-28T01:14:25.209Z,5.70
2023-04-28T01:14:56.138Z,7.80
2023-04-28T01:15:27.073Z,8.40
2023-04-28T01:15:57.996Z,8.30
2023-04-28T01:16:29.002Z,8.10
2023-04-28T01:16:59.494Z,8.50
2023-04-28T01:17:30.015Z,7.10
2023-04-28T01:18:00.541Z,7.30
2023-04-28T01:18:31.316Z,12.10
2023-04-28T01:19:02.184Z,8.10
2023-04-28T01:19:33.058Z,8.40
2023-04-28T01:20:03.931Z,8.60
2023-04-28T01:20:34.802Z,9.00
2023-04-28T01:21:05.692Z,11.00
2023-04-28T01:21:36.561Z,9.60
2023-04-28T01:22:07.499Z,9.10
2023-04-28T01:22:38.571Z,8.80
2023-04-28T01:23:09.366Z,9.30
2023-04-28T01:23:40.309Z,7.10
2023-04-28T01:24:11.248Z,8.60
2023-04-28T01:24:42.110Z,8.60
2023-04-28T01:25:12.982Z,7.70
2023-04-28T01:25:43.923Z,9.10
2023-04-28T01:26:14.806Z,7.80
2023-04-28T01:26:45.682Z,8.10
2023-04-28T01:27:16.553Z,8.70
2023-04-28T01:27:47.705Z,12.20
2023-04-28T01:28:18.206Z,8.70
2023-04-28T01:28:49.354Z,8.00
2023-04-28T01:29:19.870Z,9.60
2023-04-28T01:29:50.502Z,7.90
2023-04-28T01:30:20.992Z,9.50
2023-04-28T01:30:52.122Z,7.80
2023-04-28T01:31:22.551Z,9.80
2023-04-28T01:31:53.536Z,10.00
2023-04-28T01:32:24.005Z,7.40
2023-04-28T01:32:54.982Z,8.10
2023-04-28T01:33:25.396Z,8.40
2023-04-28T01:33:56.291Z,9.60
2023-04-28T01:34:27.300Z,6.30
2023-04-28T01:34:57.918Z,9.20
2023-04-28T01:35:28.420Z,7.40
2023-04-28T01:35:59.136Z,6.30
2023-04-28T01:36:29.632Z,6.20
2023-04-28T01:37:00.759Z,6.80
2023-04-28T01:37:31.266Z,8.00
2023-04-28T01:38:02.408Z,6.90
2023-04-28T01:38:32.788Z,9.20
2023-04-28T01:39:03.646Z,9.90
2023-04-28T01:39:34.532Z,6.40
2023-04-28T01:40:05.409Z,8.50
2023-04-28T01:40:36.298Z,6.60
2023-04-28T01:41:07.174Z,5.90
2023-04-28T01:41:38.163Z,6.10
2023-04-28T01:42:08.670Z,6.10
2023-04-28T01:42:39.600Z,8.70
2023-04-28T01:43:10.632Z,7.40
2023-04-28T01:43:41.095Z,7.80
2023-04-28T01:44:12.065Z,8.00
2023-04-28T01:44:42.939Z,8.50
2023-04-28T01:45:13.809Z,8.00
2023-04-28T01:45:44.694Z,9.60
2023-04-28T01:46:15.598Z,10.50
2023-04-28T01:46:46.556Z,6.80
2023-04-28T01:47:17.457Z,8.20
2023-04-28T01:47:48.529Z,8.40
2023-04-28T01:48:19.031Z,9.00
2023-04-28T01:48:50.038Z,7.00
2023-04-28T01:49:20.479Z,6.50
2023-04-28T01:49:51.440Z,6.70
2023-04-28T01:50:22.385Z,6.70
2023-04-28T01:50:53.264Z,7.80
2023-04-28T01:51:24.134Z,7.90
2023-04-28T01:51:55.011Z,7.70
2023-04-28T01:52:25.880Z,5.80
2023-04-28T01:52:56.797Z,7.60
2023-04-28T01:53:27.737Z,6.80
2023-04-28T01:53:58.676Z,7.40
2023-04-28T01:54:29.660Z,8.80
2023-04-28T01:55:00.638Z,6.90
2023-04-28T01:55:31.134Z,6.40
2023-04-28T01:56:02.112Z,8.90
2023-04-28T01:56:33.041Z,6.60
2023-04-28T01:57:03.902Z,8.10
2023-04-28T01:57:34.418Z,7.90
2023-04-28T01:58:05.335Z,7.10
2023-04-28T01:58:36.211Z,6.80
2023-04-28T01:59:07.072Z,8.10
2023-04-28T01:59:37.967Z,8.20
2023-04-28T02:00:09.083Z,7.60
2023-04-28T02:00:39.601Z,7.30
2023-04-28T02:01:10.283Z,7.50
2023-04-28T02:01:40.921Z,7.70
2023-04-28T02:02:11.679Z,7.50
2023-04-28T02:02:42.450Z,8.80
2023-04-28T02:03:13.427Z,6.60
2023-04-28T02:03:43.682Z,9.10
2023-04-28T02:04:14.453Z,7.50
2023-04-28T02:04:45.038Z,7.30
2023-04-28T02:05:15.932Z,6.70
2023-04-28T02:05:46.813Z,8.70
2023-04-28T02:06:17.692Z,7.00
2023-04-28T02:06:48.905Z,8.40
2023-04-28T02:07:19.575Z,6.90
2023-04-28T02:07:50.049Z,5.80
2023-04-28T02:08:21.248Z,7.40
2023-04-28T02:08:51.740Z,8.10
2023-04-28T02:09:22.863Z,7.70
2023-04-28T02:09:53.360Z,7.10
2023-04-28T02:10:24.316Z,7.90
2023-04-28T02:10:55.197Z,6.60
2023-04-28T02:11:26.070Z,8.70
2023-04-28T02:11:56.933Z,9.40
2023-04-28T02:12:27.816Z,8.50
2023-04-28T02:12:58.691Z,7.90
2023-04-28T02:13:29.710Z,8.30
2023-04-28T02:14:00.210Z,8.30
2023-04-28T02:14:31.187Z,7.10
2023-04-28T02:15:02.122Z,7.10
2023-04-28T02:15:33.052Z,8.40
2023-04-28T02:16:04.093Z,8.40
2023-04-28T02:16:34.557Z,8.60
2023-04-28T02:17:05.477Z,8.30
2023-04-28T02:17:36.485Z,7.70
2023-04-28T02:18:07.445Z,7.70
2023-04-28T02:18:38.369Z,10.10
2023-04-28T02:19:09.543Z,8.90
2023-04-28T02:19:40.031Z,7.70
2023-04-28T02:20:10.952Z,7.10
2023-04-28T02:20:41.897Z,7.70
2023-04-28T02:21:12.824Z,8.30
2023-04-28T02:21:43.967Z,7.90
2023-04-28T02:22:14.452Z,9.00
2023-04-28T02:22:45.336Z,7.60
2023-04-28T02:23:16.208Z,7.40
2023-04-28T02:23:47.108Z,7.50
2023-04-28T02:24:18.337Z,9.70
2023-04-28T02:24:48.894Z,8.40
2023-04-28T02:25:19.833Z,8.00
2023-04-28T02:25:50.874Z,8.30
2023-04-28T02:26:21.315Z,9.20
2023-04-28T02:26:52.324Z,7.40
2023-04-28T02:27:23.240Z,7.70
2023-04-28T02:27:54.202Z,6.80
2023-04-28T02:28:25.078Z,6.90
2023-04-28T02:28:55.963Z,7.10
2023-04-28T02:29:26.822Z,6.90
2023-04-28T02:29:57.701Z,6.60
2023-04-28T02:30:28.568Z,8.70
2023-04-28T02:30:59.467Z,8.50
2023-04-28T02:31:30.651Z,7.50
2023-04-28T02:32:01.226Z,7.20
2023-04-28T02:32:32.216Z,7.20
2023-04-28T02:33:02.281Z,6.30
2023-04-28T02:33:33.308Z,6.40
2023-04-28T02:34:03.825Z,6.10
2023-04-28T02:34:34.537Z,7.60
2023-04-28T02:35:05.055Z,7.90
2023-04-28T02:35:35.926Z,7.30
2023-04-28T02:36:06.814Z,6.70
2023-04-28T02:36:37.693Z,6.90
2023-04-28T02:37:08.560Z,6.80
2023-04-28T02:37:39.460Z,7.50
2023-04-28T02:38:10.462Z,7.80
2023-04-28T02:38:41.112Z,9.20
2023-04-28T02:39:11.614Z,9.60
2023-04-28T02:39:42.741Z,7.50
2023-04-28T02:40:13.264Z,6.40
2023-04-28T02:40:43.898Z,7.00
2023-04-28T02:41:14.427Z,7.50
2023-04-28T02:41:45.099Z,8.50
2023-04-28T02:42:15.503Z,7.30
2023-04-28T02:42:46.391Z,7.80
2023-04-28T02:43:17.265Z,7.20
2023-04-28T02:43:48.136Z,7.00
2023-04-28T02:44:19.034Z,8.80
2023-04-28T02:44:49.908Z,7.70
2023-04-28T02:45:20.964Z,9.60
2023-04-28T02:45:51.700Z,9.50
2023-04-28T02:46:22.291Z,8.50
2023-04-28T02:46:53.336Z,6.50
2023-04-28T02:47:23.835Z,8.10
2023-04-28T02:47:55.126Z,7.60
2023-04-28T02:48:25.671Z,8.30
2023-04-28T02:48:56.110Z,7.90
2023-04-28T02:49:26.970Z,7.40
2023-04-28T02:49:57.831Z,7.40
2023-04-28T02:50:28.688Z,7.30
2023-04-28T02:50:59.564Z,6.40
2023-04-28T02:51:30.434Z,7.30
2023-04-28T02:52:01.432Z,7.20
2023-04-28T02:52:32.396Z,7.50
2023-04-28T02:53:03.397Z,6.40
2023-04-28T02:53:33.827Z,7.50
2023-04-28T02:54:04.769Z,7.00
2023-04-28T02:54:35.708Z,6.60
2023-04-28T02:55:06.578Z,7.40
2023-04-28T02:55:37.461Z,8.10
2023-04-28T02:56:08.345Z,7.50
2023-04-28T02:56:39.256Z,7.40
2023-04-28T02:57:10.157Z,8.00
2023-04-28T02:57:41.027Z,8.10
2023-04-28T02:58:11.942Z,6.40
2023-04-28T02:58:42.862Z,7.70
2023-04-28T02:59:13.874Z,6.50
2023-04-28T02:59:44.346Z,5.70
2023-04-28T03:00:14.894Z,6.90
2023-04-28T03:00:45.380Z,7.80
2023-04-28T03:01:16.329Z,8.00
2023-04-28T03:01:46.873Z,7.80
2023-04-28T03:02:17.906Z,7.00
2023-04-28T03:02:48.432Z,8.20
2023-04-28T03:03:19.140Z,8.20
2023-04-28T03:03:49.812Z,5.90
2023-04-28T03:04:20.712Z,7.80
2023-04-28T03:04:50.937Z,8.80
2023-04-28T03:05:21.946Z,9.60
2023-04-28T03:05:53.073Z,7.40
2023-04-28T03:06:23.594Z,9.50
2023-04-28T03:06:54.251Z,6.30
2023-04-28T03:07:24.748Z,11.40
2023-04-28T03:07:55.921Z,6.40
2023-04-28T03:08:26.352Z,6.90
2023-04-28T03:08:57.223Z,7.10
2023-04-28T03:09:28.107Z,6.10
2023-04-28T03:09:58.978Z,7.90
2023-04-28T03:10:29.876Z,7.70
2023-04-28T03:11:00.790Z,6.90
2023-04-28T03:11:31.646Z,6.40
2023-04-28T03:12:02.620Z,5.70
2023-04-28T03:12:33.186Z,6.10
2023-04-28T03:13:03.667Z,6.00
2023-04-28T03:13:34.677Z,6.50
2023-04-28T03:14:05.637Z,7.20
2023-04-28T03:14:36.661Z,12.40
2023-04-28T03:15:07.130Z,8.90
2023-04-28T03:15:38.004Z,5.30
2023-04-28T03:16:08.908Z,6.50
2023-04-28T03:16:39.868Z,6.90
2023-04-28T03:17:10.763Z,5.30
2023-04-28T03:17:41.688Z,8.70
2023-04-28T03:18:12.755Z,6.20
2023-04-28T03:18:43.205Z,6.90
2023-04-28T03:19:14.200Z,6.30
2023-04-28T03:19:45.223Z,5.40
2023-04-28T03:20:15.698Z,5.80
2023-04-28T03:20:46.661Z,6.10
2023-04-28T03:21:17.539Z,7.60
2023-04-28T03:21:48.402Z,6.90
2023-04-28T03:22:19.266Z,8.30
2023-04-28T03:22:50.176Z,7.60
2023-04-28T03:23:21.075Z,7.80
2023-04-28T03:23:51.940Z,5.30
2023-04-28T03:24:22.922Z,6.30
2023-04-28T03:24:53.879Z,5.70
2023-04-28T03:25:24.845Z,8.60
2023-04-28T03:25:55.790Z,6.30
2023-04-28T03:26:26.801Z,5.60
2023-04-28T03:26:57.237Z,5.90
2023-04-28T03:27:28.137Z,5.40
2023-04-28T03:27:59.033Z,6.30
2023-04-28T03:28:29.900Z,6.60
2023-04-28T03:29:00.768Z,7.10
2023-04-28T03:29:31.631Z,7.20
2023-04-28T03:30:02.511Z,8.90
2023-04-28T03:30:33.489Z,5.40
2023-04-28T03:31:04.616Z,4.90
2023-04-28T03:31:35.175Z,6.00
2023-04-28T03:32:05.986Z,6.40
2023-04-28T03:32:36.344Z,8.20
2023-04-28T03:33:07.087Z,6.60
2023-04-28T03:33:37.415Z,7.50
2023-04-28T03:34:08.289Z,5.80
2023-04-28T03:34:39.163Z,6.90
2023-04-28T03:35:10.072Z,7.00
2023-04-28T03:35:40.968Z,6.00
2023-04-28T03:36:11.922Z,6.30
2023-04-28T03:36:42.812Z,7.40
2023-04-28T03:37:13.735Z,6.40
2023-04-28T03:37:44.675Z,6.90
2023-04-28T03:38:15.606Z,6.60
2023-04-28T03:38:46.551Z,7.40
2023-04-28T03:39:17.484Z,6.70
2023-04-28T03:39:48.386Z,6.00
2023-04-28T03:40:19.255Z,6.50
2023-04-28T03:40:50.129Z,7.10
2023-04-28T03:41:20.987Z,6.40
2023-04-28T03:41:51.877Z,8.70
2023-04-28T03:42:22.784Z,7.20
2023-04-28T03:42:53.780Z,6.50
2023-04-28T03:43:24.260Z,6.70
2023-04-28T03:43:54.811Z,6.60
2023-04-28T03:44:25.736Z,4.90
2023-04-28T03:44:56.761Z,6.60
2023-04-28T03:45:27.690Z,6.40
2023-04-28T03:45:58.917Z,6.10
2023-04-28T03:46:29.615Z,6.70
2023-04-28T03:47:00.083Z,5.50
2023-04-28T03:47:31.043Z,5.80
2023-04-28T03:48:01.913Z,6.30
2023-04-28T03:48:32.799Z,5.80
2023-04-28T03:49:03.662Z,6.10
2023-04-28T03:49:34.675Z,6.10
2023-04-28T03:50:05.134Z,5.20
2023-04-28T03:50:36.049Z,7.10
2023-04-28T03:51:07.025Z,6.70
2023-04-28T03:51:37.564Z,7.70
2023-04-28T03:52:08.002Z,5.60
2023-04-28T03:52:38.898Z,5.00
2023-04-28T03:53:09.761Z,5.80
2023-04-28T03:53:40.663Z,6.10
2023-04-28T03:54:11.571Z,6.40
2023-04-28T03:54:42.444Z,5.70
2023-04-28T03:55:13.298Z,7.00
2023-04-28T03:55:44.310Z,5.10
2023-04-28T03:56:14.683Z,5.50
2023-04-28T03:56:45.542Z,6.40
2023-04-28T03:57:16.424Z,5.20
2023-04-28T03:57:47.366Z,6.10
2023-04-28T03:58:18.323Z,5.40
2023-04-28T03:58:49.210Z,6.30
2023-04-28T03:59:20.027Z,5.40
2023-04-28T03:59:50.923Z,5.20
2023-04-28T04:00:21.796Z,6.10
2023-04-28T04:00:52.630Z,5.30
2023-04-28T04:01:23.666Z,5.70
2023-04-28T04:01:54.179Z,8.20
2023-04-28T04:02:25.326Z,5.90
2023-04-28T04:02:56.122Z,6.60
2023-04-28T04:03:27.062Z,4.50
2023-04-28T04:03:57.323Z,7.50
2023-04-28T04:04:28.554Z,7.70
2023-04-28T04:04:58.962Z,5.40
2023-04-28T04:05:29.736Z,6.10
2023-04-28T04:06:00.127Z,5.20
2023-04-28T04:06:30.949Z,5.70
2023-04-28T04:07:01.763Z,5.80
2023-04-28T04:07:32.583Z,7.80
2023-04-28T04:08:03.392Z,7.60
2023-04-28T04:08:34.207Z,6.30
2023-04-28T04:09:05.155Z,4.80
2023-04-28T04:09:36.261Z,5.10
2023-04-28T04:10:06.711Z,7.70
2023-04-28T04:10:37.869Z,6.20
2023-04-28T04:11:08.305Z,7.80
2023-04-28T04:11:39.374Z,8.80
2023-04-28T04:12:09.843Z,5.90
2023-04-28T04:12:40.698Z,6.80
2023-04-28T04:13:11.514Z,5.00
2023-04-28T04:13:42.351Z,6.50
2023-04-28T04:14:13.172Z,6.40
2023-04-28T04:14:43.985Z,7.60
2023-04-28T04:15:14.815Z,6.40
2023-04-28T04:15:45.835Z,5.70
2023-04-28T04:16:16.552Z,6.00
2023-04-28T04:16:47.431Z,6.20
2023-04-28T04:17:18.311Z,4.70
2023-04-28T04:17:49.237Z,5.90
2023-04-28T04:18:20.212Z,6.80
2023-04-28T04:18:51.036Z,5.20
2023-04-28T04:19:21.848Z,5.40
2023-04-28T04:19:52.672Z,5.30
2023-04-28T04:20:23.488Z,5.30
2023-04-28T04:20:54.351Z,4.60
2023-04-28T04:21:25.160Z,6.20
2023-04-28T04:21:56.122Z,8.30
2023-04-28T04:22:27.079Z,6.10
2023-04-28T04:22:57.964Z,4.60
2023-04-28T04:23:28.851Z,5.70
2023-04-28T04:23:59.729Z,5.10
2023-04-28T04:24:30.598Z,6.10
2023-04-28T04:25:01.432Z,7.90
2023-04-28T04:25:32.229Z,5.70
2023-04-28T04:26:03.055Z,4.60
2023-04-28T04:26:33.886Z,5.40
2023-04-28T04:27:04.725Z,6.00
2023-04-28T04:27:35.545Z,5.20
2023-04-28T04:28:06.420Z,6.00
2023-04-28T04:28:37.418Z,4.50
2023-04-28T04:29:08.387Z,6.60
2023-04-28T04:29:39.259Z,5.10
2023-04-28T04:30:10.141Z,4.80
2023-04-28T04:30:41.010Z,4.50
2023-04-28T04:31:11.885Z,8.10
2023-04-28T04:31:42.911Z,4.60
2023-04-28T04:32:13.573Z,5.90
2023-04-28T04:32:44.491Z,5.60
2023-04-28T04:33:15.393Z,4.20
2023-04-28T04:33:46.297Z,6.00
2023-04-28T04:34:17.598Z,5.30
2023-04-28T04:34:48.201Z,4.90
2023-04-28T04:35:19.090Z,7.90
2023-04-28T04:35:49.989Z,5.50
2023-04-28T04:36:20.888Z,5.40
2023-04-28T04:36:51.727Z,5.20
2023-04-28T04:37:22.557Z,5.00
2023-04-28T04:37:53.365Z,4.60
2023-04-28T04:38:24.179Z,6.90
2023-04-28T04:38:54.985Z,5.20
2023-04-28T04:39:25.820Z,6.30
2023-04-28T04:39:56.678Z,4.80
2023-04-28T04:40:27.556Z,5.70
2023-04-28T04:40:58.437Z,6.50
2023-04-28T04:41:29.352Z,5.30
2023-04-28T04:42:07.281Z,4.60
2023-04-28T04:42:32.195Z,5.80
2023-04-28T04:43:02.042Z,6.00
2023-04-28T04:43:32.881Z,6.90
2023-04-28T04:44:03.712Z,4.20
2023-04-28T04:44:34.562Z,5.10
2023-04-28T04:45:05.379Z,4.70
2023-04-28T04:45:36.207Z,5.50
2023-04-28T04:46:07.120Z,5.70
2023-04-28T04:46:38.128Z,5.50
2023-04-28T04:47:08.536Z,4.20
2023-04-28T04:47:39.477Z,6.40
2023-04-28T04:48:10.469Z,5.90
2023-04-28T04:48:40.962Z,7.90
2023-04-28T04:49:11.849Z,4.90
2023-04-28T04:49:42.673Z,4.30
2023-04-28T04:50:13.508Z,4.90
2023-04-28T04:50:44.368Z,5.80
2023-04-28T04:51:15.228Z,5.70
2023-04-28T04:51:46.031Z,4.40
2023-04-28T04:52:16.892Z,8.30
2023-04-28T04:52:47.813Z,5.80
2023-04-28T04:53:18.989Z,4.60
2023-04-28T04:53:49.425Z,5.40
2023-04-28T04:54:21.070Z,5.20
2023-04-28T04:54:51.015Z,4.60
2023-04-28T04:55:22.096Z,4.80
2023-04-28T04:55:52.455Z,6.30
2023-04-28T04:56:23.285Z,7.70
2023-04-28T04:56:54.168Z,4.70
2023-04-28T04:57:25.009Z,4.70
2023-04-28T04:57:55.852Z,4.80
2023-04-28T04:58:26.661Z,5.60
2023-04-28T04:58:57.538Z,5.20
2023-04-28T04:59:28.617Z,5.50
2023-04-28T04:59:59.101Z,5.60
2023-04-28T05:00:30.405Z,6.70
2023-04-28T05:01:00.890Z,4.00
2023-04-28T05:01:31.999Z,4.10
2023-04-28T05:02:02.389Z,6.20
2023-04-28T05:02:33.319Z,5.70
2023-04-28T05:03:03.880Z,5.90
2023-04-28T05:03:34.628Z,4.60
2023-04-28T05:04:05.320Z,5.40
2023-04-28T05:04:36.236Z,4.70
2023-04-28T05:05:19.712Z,5.70
2023-04-28T05:05:38.758Z,5.20
2023-04-28T05:06:08.168Z,7.50
2023-04-28T05:06:39.052Z,4.70
2023-04-28T05:07:09.937Z,6.60
2023-04-28T05:07:40.828Z,5.50
2023-04-28T05:08:11.707Z,5.20
2023-04-28T05:08:42.597Z,5.10
2023-04-28T05:09:13.414Z,4.80
2023-04-28T05:09:44.231Z,3.80
2023-04-28T05:10:15.089Z,4.40
2023-04-28T05:10:45.931Z,5.00
2023-04-28T05:11:16.775Z,4.70
2023-04-28T05:11:47.579Z,5.80
2023-04-28T05:12:18.465Z,4.80
2023-04-28T05:12:49.454Z,4.80
2023-04-28T05:13:20.334Z,5.60
2023-04-28T05:13:51.224Z,5.20
2023-04-28T05:14:22.083Z,8.10
2023-04-28T05:14:53.028Z,5.60
2023-04-28T05:15:23.869Z,4.80
2023-04-28T05:15:54.687Z,5.00
2023-04-28T05:16:25.571Z,6.30
2023-04-28T05:16:56.500Z,6.30
2023-04-28T05:17:27.465Z,6.00
2023-04-28T05:17:58.384Z,6.00
2023-04-28T05:18:29.279Z,4.50
2023-04-28T05:19:00.186Z,5.20
2023-04-28T05:19:31.075Z,4.50
2023-04-28T05:20:01.960Z,4.50
2023-04-28T05:20:32.881Z,5.70
2023-04-28T05:21:03.704Z,4.60
2023-04-28T05:21:34.542Z,4.60
2023-04-28T05:22:05.367Z,4.40
2023-04-28T05:22:36.217Z,6.30
2023-04-28T05:23:07.074Z,5.50
2023-04-28T05:23:37.917Z,4.10
2023-04-28T05:24:08.799Z,4.70
2023-04-28T05:24:39.922Z,4.80
2023-04-28T05:25:10.381Z,5.00
2023-04-28T05:25:41.500Z,4.90
2023-04-28T05:26:11.891Z,4.40
2023-04-28T05:26:43.053Z,3.70
2023-04-28T05:27:13.429Z,4.40
2023-04-28T05:27:45.622Z,5.30
2023-04-28T05:28:14.940Z,2.90
2023-04-28T05:28:45.786Z,5.80
2023-04-28T05:29:16.653Z,4.10
2023-04-28T05:29:47.471Z,5.30
2023-04-28T05:30:18.299Z,4.00
2023-04-28T05:30:49.553Z,8.10
2023-04-28T05:31:20.041Z,4.20
2023-04-28T05:31:50.877Z,5.10
2023-04-28T05:32:21.560Z,3.80
2023-04-28T05:32:52.329Z,5.00
2023-04-28T05:33:22.739Z,4.00
2023-04-28T05:33:53.931Z,5.00
2023-04-28T05:34:24.287Z,5.00
2023-04-28T05:34:55.108Z,5.90
2023-04-28T05:35:25.964Z,6.50
2023-04-28T05:35:56.779Z,3.30
2023-04-28T05:36:27.635Z,5.40
2023-04-28T05:36:58.501Z,4.00
2023-04-28T05:37:29.384Z,4.60
2023-04-28T05:38:00.303Z,5.00
2023-04-28T05:38:31.248Z,5.40
2023-04-28T05:39:02.183Z,4.70
2023-04-28T05:39:33.135Z,3.80
2023-04-28T05:40:04.014Z,4.70
2023-04-28T05:40:34.835Z,3.90
2023-04-28T05:41:05.734Z,4.90
2023-04-28T05:41:36.555Z,5.60
2023-04-28T05:42:07.380Z,4.20
2023-04-28T05:42:38.255Z,4.10
2023-04-28T05:43:09.279Z,5.70
2023-04-28T05:43:39.742Z,3.70
2023-04-28T05:44:10.684Z,4.80
2023-04-28T05:44:43.066Z,4.20
2023-04-28T05:45:12.162Z,4.10
2023-04-28T05:45:43.183Z,4.00
2023-04-28T05:46:28.512Z,4.10
2023-04-28T05:46:45.283Z,4.50
2023-04-28T05:47:14.676Z,5.10
2023-04-28T05:47:45.556Z,3.60
2023-04-28T05:48:16.393Z,5.50
2023-04-28T05:48:47.235Z,3.50
2023-04-28T05:49:18.122Z,6.40
2023-04-28T05:49:48.981Z,4.10
2023-04-28T05:50:19.859Z,4.40
2023-04-28T05:50:50.971Z,4.70
2023-04-28T05:51:21.437Z,4.60
2023-04-28T05:51:52.712Z,3.50
2023-04-28T05:52:23.317Z,4.50
2023-04-28T05:52:54.433Z,4.20
2023-04-28T05:53:24.783Z,5.00
2023-04-28T05:53:55.634Z,3.50
2023-04-28T05:54:26.463Z,3.90
2023-04-28T05:54:57.323Z,4.50
2023-04-28T05:55:28.138Z,4.60
2023-04-28T05:55:58.972Z,4.60
2023-04-28T05:56:29.964Z,4.20
2023-04-28T05:57:01.517Z,4.30
2023-04-28T05:57:33.938Z,4.40
2023-04-28T05:58:03.246Z,7.00
2023-04-28T05:58:32.679Z,4.80
2023-04-28T05:59:03.815Z,3.90
2023-04-28T05:59:34.815Z,4.30
2023-04-28T06:00:05.156Z,3.50
2023-04-28T06:00:35.979Z,3.20
2023-04-28T06:01:06.780Z,4.30
2023-04-28T06:01:37.626Z,4.60
2023-04-28T06:02:08.498Z,3.80
2023-04-28T06:02:39.600Z,4.40
2023-04-28T06:03:10.719Z,4.20
2023-04-28T06:03:41.217Z,6.10
2023-04-28T06:04:11.904Z,6.00
2023-04-28T06:04:42.199Z,3.80
2023-04-28T06:05:13.364Z,7.20
2023-04-28T06:05:43.995Z,3.50
2023-04-28T06:06:14.429Z,3.90
2023-04-28T06:06:44.948Z,3.80
2023-04-28T06:07:15.339Z,3.00
2023-04-28T06:07:47.308Z,4.00
2023-04-28T06:08:16.814Z,5.40
2023-04-28T06:08:47.620Z,4.20
2023-04-28T06:09:18.864Z,4.60
2023-04-28T06:09:49.332Z,4.20
2023-04-28T06:10:20.195Z,3.40
2023-04-28T06:10:51.369Z,3.60
2023-04-28T06:11:21.846Z,3.20
2023-04-28T06:11:52.500Z,3.80
2023-04-28T06:12:22.958Z,3.70
2023-04-28T06:12:53.885Z,4.60
2023-04-28T06:13:24.851Z,4.50
2023-04-28T06:13:55.689Z,4.40
2023-04-28T06:14:26.530Z,3.50
2023-04-28T06:14:57.334Z,2.60
2023-04-28T06:15:28.162Z,3.90
2023-04-28T06:15:58.993Z,3.70
2023-04-28T06:16:29.922Z,3.40
2023-04-28T06:17:00.935Z,3.40
2023-04-28T06:17:31.831Z,4.50
2023-04-28T06:18:02.785Z,3.40
2023-04-28T06:18:33.693Z,3.50
2023-04-28T06:19:04.656Z,3.50
2023-04-28T06:19:35.627Z,4.90
2023-04-28T06:20:06.478Z,4.00
2023-04-28T06:20:37.333Z,3.40
2023-04-28T06:21:08.187Z,4.20
2023-04-28T06:21:39.002Z,3.80
2023-04-28T06:22:09.832Z,4.50
2023-04-28T06:22:40.674Z,3.40
2023-04-28T06:23:11.744Z,4.00
2023-04-28T06:23:42.206Z,3.40
2023-04-28T06:24:13.394Z,3.50
2023-04-28T06:24:43.856Z,4.70
2023-04-28T06:25:14.831Z,5.00
2023-04-28T06:25:45.737Z,3.50
2023-04-28T06:26:18.062Z,3.30
2023-04-28T06:26:47.305Z,3.50
2023-04-28T06:27:18.124Z,3.70
2023-04-28T06:27:48.979Z,3.20
2023-04-28T06:28:19.790Z,4.70
2023-04-28T06:28:50.598Z,4.20
2023-04-28T06:29:21.469Z,3.80
2023-04-28T06:29:52.565Z,4.10
2023-04-28T06:30:23.017Z,3.40
2023-04-28T06:30:54.218Z,3.70
2023-04-28T06:31:24.767Z,4.10
2023-04-28T06:31:55.396Z,6.00
2023-04-28T06:32:25.923Z,4.30
2023-04-28T06:32:56.645Z,3.40
2023-04-28T06:33:27.021Z,4.50
2023-04-28T06:33:57.845Z,3.00
2023-04-28T06:34:28.678Z,4.10
2023-04-28T06:34:59.516Z,5.20
2023-04-28T06:35:30.327Z,3.50
2023-04-28T06:36:01.138Z,3.50
2023-04-28T06:36:32.076Z,3.80
2023-04-28T06:37:03.026Z,4.70
2023-04-28T06:37:33.920Z,3.50
2023-04-28T06:38:05.019Z,3.50
2023-04-28T06:38:35.659Z,3.80
2023-04-28T06:39:06.713Z,4.40
2023-04-28T06:39:36.723Z,4.10
2023-04-28T06:40:07.075Z,4.00
2023-04-28T06:40:37.905Z,3.10
2023-04-28T06:41:08.744Z,3.90
2023-04-28T06:41:39.619Z,2.90
2023-04-28T06:42:10.427Z,3.20
2023-04-28T06:42:41.286Z,5.00
2023-04-28T06:43:12.238Z,5.90
2023-04-28T06:43:43.261Z,4.40
2023-04-28T06:44:13.728Z,3.90
2023-04-28T06:44:44.734Z,3.20
2023-04-28T06:45:15.253Z,3.60
2023-04-28T06:45:45.738Z,2.90
2023-04-28T06:46:16.688Z,4.30
2023-04-28T06:46:47.126Z,3.50
2023-04-28T06:47:17.976Z,4.00
2023-04-28T06:47:48.891Z,4.50
2023-04-28T06:48:19.772Z,4.60
2023-04-28T06:48:50.881Z,4.30
2023-04-28T06:49:21.433Z,5.70
2023-04-28T06:49:52.402Z,3.80
2023-04-28T06:50:23.361Z,3.90